M I D A S
Marine Information and Data Acquisition System
Tripno 1442 of the Zeeleeuw from 2008-03-20 07:41:39 to 2008-03-20 15:24:56
Back to CruiseResearch ActivitiesStationsMapUnderway DataData graphs

EquipmentUnitsComment
TimeDGPSUTC
LatitudeDGPSDM.mWGS84
LongitudeDGPSDM.mWGS84
HeadingGyrodeg 
SOGDGPSknotsSpeed over ground
COGDGPSdegCourse over ground
DepthEcho soundermeters200 kHz
Missing or incorrect values are displayed as -999
Navigation data collected by the RV Zeeleeuw from 2008-03-20 07:38:23 to 2008-03-20 15:35:19
                                                                                    Next 1000 lines
Time Latitude Longitude Heading SOG COG Depth
2008-03-20 07:38:33 51°13.665 2°55.951 114.6 0.8 303 5.8
2008-03-20 07:38:38 51°13.666 2°55.949 115.1 1.1 306 5.9
2008-03-20 07:38:43 51°13.667 2°55.947 115.2 1.5 301 5.8
2008-03-20 07:38:48 51°13.668 2°55.943 115.1 1.8 301 5.8
2008-03-20 07:38:53 51°13.67 2°55.939 114.7 2.1 299 -999
2008-03-20 07:38:58 51°13.671 2°55.934 113.8 2.4 299 -999
2008-03-20 07:39:03 51°13.673 2°55.929 112.4 2.6 297 -999
2008-03-20 07:39:08 51°13.675 2°55.924 111.7 2.8 296 -999
2008-03-20 07:39:13 51°13.676 2°55.918 111 3 295 -999
2008-03-20 07:39:18 51°13.678 2°55.911 110.2 3.2 293 -999
2008-03-20 07:39:23 51°13.679 2°55.904 108.8 3.3 292 -999
2008-03-20 07:39:28 51°13.681 2°55.897 107.1 3.5 290 -999
2008-03-20 07:39:33 51°13.683 2°55.89 105.2 3.5 289 -999
2008-03-20 07:39:38 51°13.684 2°55.882 103.1 3.5 286 -999
2008-03-20 07:39:43 51°13.685 2°55.875 101.2 3.4 284 -999
2008-03-20 07:39:48 51°13.686 2°55.868 99.4 3.3 283 -999
2008-03-20 07:39:53 51°13.687 2°55.861 97.9 3.2 282 -999
2008-03-20 07:39:58 51°13.688 2°55.854 96.5 3.2 281 -999
2008-03-20 07:40:03 51°13.689 2°55.847 95.3 3.1 280 -999
2008-03-20 07:40:08 51°13.69 2°55.841 94 3.1 280 7.6
2008-03-20 07:40:13 51°13.691 2°55.835 92.8 3.1 279 -999
2008-03-20 07:40:18 51°13.692 2°55.828 91.7 3.1 277 8.2
2008-03-20 07:40:23 51°13.692 2°55.821 90.5 3 277 8.2
2008-03-20 07:40:28 51°13.692 2°55.815 88.8 3 275 8.6
2008-03-20 07:40:33 51°13.693 2°55.809 87 2.9 274 8.9
2008-03-20 07:40:38 51°13.693 2°55.803 85.1 2.8 272 9.2
2008-03-20 07:40:43 51°13.693 2°55.797 83.4 2.7 271 9.5
2008-03-20 07:40:48 51°13.693 2°55.791 81.7 2.6 270 9.8
2008-03-20 07:40:53 51°13.693 2°55.786 80.2 2.4 269 10.3
2008-03-20 07:40:58 51°13.693 2°55.781 78.8 2.3 268 10.6
2008-03-20 07:41:03 51°13.693 2°55.776 77.5 2.2 267 11
2008-03-20 07:41:08 51°13.693 2°55.771 76.1 2 264 11
2008-03-20 07:41:13 51°13.692 2°55.767 74.7 1.9 264 11.4
2008-03-20 07:41:18 51°13.692 2°55.763 73.2 1.8 262 11.5
2008-03-20 07:41:23 51°13.692 2°55.76 71.8 1.6 260 11.5
2008-03-20 07:41:28 51°13.691 2°55.757 70.4 1.4 258 11.4
2008-03-20 07:41:33 51°13.691 2°55.754 68.7 1.2 258 11.3
2008-03-20 07:41:38 51°13.69 2°55.751 67.1 1.1 255 11.2
2008-03-20 07:41:43 51°13.69 2°55.749 65 0.9 257 11.3
2008-03-20 07:41:48 51°13.69 2°55.748 62.4 0.8 256 11.3
2008-03-20 07:41:53 51°13.689 2°55.746 60.3 0.6 250 11.2
2008-03-20 07:41:58 51°13.689 2°55.745 58.2 0.5 255 11.2
2008-03-20 07:42:03 51°13.689 2°55.745 56.6 0.4 256 11.2
2008-03-20 07:42:08 51°13.689 2°55.744 54.3 0.2 264 11.2
2008-03-20 07:42:13 51°13.689 2°55.744 52.5 0.1 300 11.2
2008-03-20 07:42:18 51°13.689 2°55.744 50.6 0.2 344 11.1
2008-03-20 07:42:23 51°13.69 2°55.744 49.1 0.2 13 11.1
2008-03-20 07:42:28 51°13.69 2°55.744 47 0.4 23 11.2
2008-03-20 07:42:33 51°13.691 2°55.744 44.3 0.5 22 11.2
2008-03-20 07:42:38 51°13.692 2°55.745 41.6 0.6 23 11.3
2008-03-20 07:42:43 51°13.692 2°55.745 38.9 0.7 20 11.4
2008-03-20 07:42:48 51°13.694 2°55.746 36.5 0.8 21 11.5
2008-03-20 07:42:53 51°13.695 2°55.746 33.3 0.9 18 11.7
2008-03-20 07:42:58 51°13.696 2°55.747 29 1 14 11.8
2008-03-20 07:43:03 51°13.697 2°55.748 26.1 1 13 11.9
2008-03-20 07:43:08 51°13.699 2°55.748 22.4 1.1 9 12.2
2008-03-20 07:43:13 51°13.701 2°55.748 17.7 1.2 6 12.5
2008-03-20 07:43:18 51°13.702 2°55.748 14.7 1.2 3 12.7
2008-03-20 07:43:23 51°13.704 2°55.748 10.3 1.3 357 12.9
2008-03-20 07:43:28 51°13.706 2°55.748 7.5 1.4 357 13.1
2008-03-20 07:43:33 51°13.708 2°55.747 3.5 1.6 354 13.1
2008-03-20 07:43:38 51°13.711 2°55.747 0.6 1.7 351 13.2
2008-03-20 07:43:43 51°13.713 2°55.746 356.7 1.9 349 13.1
2008-03-20 07:43:48 51°13.716 2°55.745 352.6 2.1 345 12.8
2008-03-20 07:43:53 51°13.719 2°55.743 348.1 2.4 342 12.5
2008-03-20 07:43:58 51°13.723 2°55.741 342.5 2.8 337 12.4
2008-03-20 07:44:03 51°13.727 2°55.737 338.8 3.5 335 12.2
2008-03-20 07:44:08 51°13.732 2°55.733 334 4.1 331 11.4
2008-03-20 07:44:13 51°13.738 2°55.728 331.8 4.6 331 -999
2008-03-20 07:44:18 51°13.744 2°55.722 329.7 5.2 327 10.4
2008-03-20 07:44:23 51°13.75 2°55.715 327.5 5.6 327 10.2
2008-03-20 07:44:28 51°13.758 2°55.707 326.6 6 326 -999
2008-03-20 07:44:33 51°13.764 2°55.699 326.5 6.3 326 -999
2008-03-20 07:44:38 51°13.772 2°55.69 326.5 6.7 325 9.4
2008-03-20 07:44:43 51°13.78 2°55.681 326.6 6.9 326 9.3
2008-03-20 07:44:48 51°13.788 2°55.672 326.6 7.1 326 9.3
2008-03-20 07:44:53 51°13.797 2°55.663 326.1 7.4 326 10
2008-03-20 07:44:58 51°13.806 2°55.654 326 7.6 328 10
2008-03-20 07:45:03 51°13.815 2°55.645 327 7.8 329 9.8
2008-03-20 07:45:08 51°13.824 2°55.636 328.9 7.9 331 10
2008-03-20 07:45:13 51°13.834 2°55.628 330.4 8 331 10.5
2008-03-20 07:45:18 51°13.844 2°55.619 330.6 8 332 10.3
2008-03-20 07:45:23 51°13.854 2°55.611 331.4 8.1 332 10.4
2008-03-20 07:45:28 51°13.864 2°55.604 332.7 8.2 334 10.7
2008-03-20 07:45:32 51°13.873 2°55.598 334.5 6.7 334 10.6
2008-03-20 07:45:38 51°13.885 2°55.588 334.9 7.8 334 10
2008-03-20 07:45:43 51°13.896 2°55.58 335 8.5 335 10.2
2008-03-20 07:45:48 51°13.906 2°55.572 335.2 8.5 334 10.3
2008-03-20 07:45:53 51°13.917 2°55.564 335.2 8.5 335 10.3
2008-03-20 07:45:58 51°13.928 2°55.557 335.5 8.5 336 10.3
2008-03-20 07:46:03 51°13.939 2°55.549 335.9 8.6 336 10.5
2008-03-20 07:46:08 51°13.95 2°55.541 336.2 8.6 336 10.5
2008-03-20 07:46:13 51°13.961 2°55.533 336 8.7 336 10.5
2008-03-20 07:46:18 51°13.972 2°55.526 335.9 8.7 337 10.3
2008-03-20 07:46:23 51°13.983 2°55.519 336.3 8.6 336 10.3
2008-03-20 07:46:28 51°13.994 2°55.511 336.4 8.7 336 10.3
2008-03-20 07:46:33 51°14.005 2°55.503 335.8 8.7 336 10.3
2008-03-20 07:46:38 51°14.016 2°55.496 335.6 8.6 336 10.2
2008-03-20 07:46:43 51°14.027 2°55.488 336.3 8.6 336 10.3
2008-03-20 07:46:48 51°14.037 2°55.48 336.4 8.6 334 10.2
2008-03-20 07:46:53 51°14.048 2°55.471 335.4 8.6 334 10.3
2008-03-20 07:46:58 51°14.059 2°55.463 334.6 8.6 333 10.3
2008-03-20 07:47:03 51°14.069 2°55.454 334.5 8.6 335 10.2
2008-03-20 07:47:08 51°14.08 2°55.446 335.2 8.6 334 10.1
2008-03-20 07:47:13 51°14.091 2°55.438 335.3 8.6 334 10
2008-03-20 07:47:18 51°14.102 2°55.43 334.7 8.6 333 10.1
2008-03-20 07:47:23 51°14.112 2°55.421 334.3 8.6 334 10.1
2008-03-20 07:47:28 51°14.122 2°55.412 334.5 8.5 333 9.9
2008-03-20 07:47:33 51°14.133 2°55.404 334.3 8.5 333 10
2008-03-20 07:47:38 51°14.143 2°55.395 333.8 8.5 332 10.3
2008-03-20 07:47:43 51°14.154 2°55.387 333.4 8.4 332 -999
2008-03-20 07:47:48 51°14.164 2°55.377 332.2 8.4 331 10.4
2008-03-20 07:47:53 51°14.174 2°55.368 331.1 8.4 330 10.3
2008-03-20 07:47:58 51°14.184 2°55.358 330.5 8.4 329 10.6
2008-03-20 07:48:03 51°14.194 2°55.348 329.4 8.4 327 -999
2008-03-20 07:48:08 51°14.203 2°55.337 328.2 8.4 326 10.2
2008-03-20 07:48:13 51°14.213 2°55.326 326.9 8.5 324 10.3
2008-03-20 07:48:18 51°14.222 2°55.315 325.4 8.7 323 10.3
2008-03-20 07:48:23 51°14.232 2°55.302 323.6 8.9 321 10.4
2008-03-20 07:48:28 51°14.242 2°55.289 321.7 9.3 319 10.3
2008-03-20 07:48:33 51°14.251 2°55.275 320.1 9.7 318 10.2
2008-03-20 07:48:38 51°14.262 2°55.26 318.9 10 317 10.3
2008-03-20 07:48:43 51°14.271 2°55.244 318 10.3 315 10.2
2008-03-20 07:48:48 51°14.281 2°55.227 316.3 10.4 313 10.2
2008-03-20 07:48:53 51°14.292 2°55.21 314.4 10.6 313 10.2
2008-03-20 07:48:58 51°14.302 2°55.193 313.6 10.7 313 10.4
2008-03-20 07:49:03 51°14.312 2°55.175 313.1 10.8 313 10.3
2008-03-20 07:49:08 51°14.322 2°55.158 313 10.9 313 10.1
2008-03-20 07:49:13 51°14.333 2°55.14 313.2 11 313 10
2008-03-20 07:49:18 51°14.343 2°55.121 312.7 11.1 311 10
2008-03-20 07:49:23 51°14.352 2°55.102 311 11.2 309 10
2008-03-20 07:49:28 51°14.362 2°55.083 309.5 11.2 308 10
2008-03-20 07:49:33 51°14.371 2°55.063 308.3 11.2 307 9.9
2008-03-20 07:49:38 51°14.38 2°55.042 307 11.2 305 10
2008-03-20 07:49:43 51°14.388 2°55.022 305.5 11.3 302 9.9
2008-03-20 07:49:48 51°14.397 2°55 303.9 11.5 301 9.9
2008-03-20 07:49:53 51°14.405 2°54.978 302.6 11.7 299 9.7
2008-03-20 07:49:58 51°14.413 2°54.955 301.8 11.8 299 9.8
2008-03-20 07:50:03 51°14.421 2°54.932 301 11.7 300 9.8
2008-03-20 07:50:08 51°14.429 2°54.91 301.8 11.9 300 10.2
2008-03-20 07:50:13 51°14.437 2°54.886 301.8 12 300 10.1
2008-03-20 07:50:18 51°14.445 2°54.863 301.9 12.1 299 10.1
2008-03-20 07:50:23 51°14.453 2°54.839 301.8 12.2 297 10.2
2008-03-20 07:50:28 51°14.46 2°54.814 300.2 12.4 295 10.1
2008-03-20 07:50:33 51°14.467 2°54.789 298.3 12.5 294 10
2008-03-20 07:50:38 51°14.474 2°54.764 296.7 12.5 294 9.9
2008-03-20 07:50:43 51°14.481 2°54.738 296 12.5 293 10.1
2008-03-20 07:50:48 51°14.488 2°54.713 296.1 12.5 293 9.9
2008-03-20 07:50:53 51°14.494 2°54.687 295.7 12.6 291 9.8
2008-03-20 07:50:58 51°14.501 2°54.662 295 12.5 293 9.7
2008-03-20 07:51:03 51°14.507 2°54.636 295.6 12.5 291 9.8
2008-03-20 07:51:08 51°14.513 2°54.611 295.3 12.4 292 9.8
2008-03-20 07:51:13 51°14.519 2°54.585 295.4 12.4 291 10
2008-03-20 07:51:18 51°14.526 2°54.559 295.2 12.5 291 10
2008-03-20 07:51:23 51°14.532 2°54.534 294.6 12.5 292 9.8
2008-03-20 07:51:28 51°14.539 2°54.508 295.4 12.4 293 9.8
2008-03-20 07:51:33 51°14.545 2°54.483 295.7 12.3 291 9.9
2008-03-20 07:51:38 51°14.551 2°54.457 295.5 12.4 292 10.1
2008-03-20 07:51:43 51°14.558 2°54.432 295.8 12.5 291 10.1
2008-03-20 07:51:48 51°14.564 2°54.406 295.2 12.6 292 10.1
2008-03-20 07:51:53 51°14.571 2°54.38 295.6 12.5 292 10.1
2008-03-20 07:51:58 51°14.577 2°54.355 296.2 12.5 292 10.2
2008-03-20 07:52:03 51°14.584 2°54.329 296.5 12.6 292 10.2
2008-03-20 07:52:08 51°14.591 2°54.303 296.4 12.6 292 10.2
2008-03-20 07:52:13 51°14.598 2°54.278 296.4 12.6 293 10.2
2008-03-20 07:52:18 51°14.604 2°54.252 296.5 12.7 292 10.3
2008-03-20 07:52:23 51°14.611 2°54.226 296.5 12.6 291 10.3
2008-03-20 07:52:28 51°14.617 2°54.201 295.7 12.6 293 10.2
2008-03-20 07:52:33 51°14.624 2°54.175 295.5 12.5 292 10.2
2008-03-20 07:52:38 51°14.63 2°54.149 295.3 12.5 292 10.3
2008-03-20 07:52:43 51°14.637 2°54.123 295.8 12.5 291 10.4
2008-03-20 07:52:48 51°14.642 2°54.098 296 12.4 289 10.2
2008-03-20 07:52:53 51°14.646 2°54.071 295.2 12.5 285 10.3
2008-03-20 07:52:58 51°14.65 2°54.044 289.9 12.6 283 10.5
2008-03-20 07:53:03 51°14.655 2°54.017 288.3 12.6 287 10.2
2008-03-20 07:53:08 51°14.659 2°53.99 289.3 12.7 283 10.3
2008-03-20 07:53:13 51°14.664 2°53.962 288.6 12.7 284 10.5
2008-03-20 07:53:18 51°14.667 2°53.935 287.7 12.7 282 10.3
2008-03-20 07:53:23 51°14.672 2°53.908 287.3 12.7 284 10.5
2008-03-20 07:53:28 51°14.676 2°53.88 286.7 12.7 283 10
2008-03-20 07:53:33 51°14.68 2°53.854 286.9 12.4 284 9.8
2008-03-20 07:53:38 51°14.684 2°53.827 287.5 12.5 283 10
2008-03-20 07:53:43 51°14.688 2°53.8 287.7 12.5 284 9.6
2008-03-20 07:53:48 51°14.692 2°53.774 288 12.5 283 9.8
2008-03-20 07:53:53 51°14.696 2°53.747 287.5 12.4 284 9.8
2008-03-20 07:53:58 51°14.7 2°53.72 287.1 12.3 285 9.6
2008-03-20 07:54:03 51°14.705 2°53.694 288 12.4 284 9.7
2008-03-20 07:54:08 51°14.708 2°53.667 288.2 12.4 282 9.7
2008-03-20 07:54:13 51°14.71 2°53.639 287.3 12.4 276 9.4
2008-03-20 07:54:18 51°14.711 2°53.612 281.8 12.5 274 9.4
2008-03-20 07:54:23 51°14.713 2°53.584 278.6 12.6 276 9.6
2008-03-20 07:54:28 51°14.715 2°53.556 279.5 12.6 275 9.6
2008-03-20 07:54:33 51°14.716 2°53.529 278.7 12.6 275 9.6
2008-03-20 07:54:38 51°14.718 2°53.501 278.1 12.7 276 9.6
2008-03-20 07:54:43 51°14.719 2°53.473 277.9 12.7 274 9.5
2008-03-20 07:54:48 51°14.721 2°53.445 277.5 12.7 274 9.4
2008-03-20 07:54:53 51°14.721 2°53.417 277 12.8 274 9.3
2008-03-20 07:54:58 51°14.723 2°53.388 276.8 12.7 274 9.1
2008-03-20 07:55:03 51°14.724 2°53.361 277.1 12.7 274 9.1
2008-03-20 07:55:08 51°14.726 2°53.333 277.5 12.7 275 9
2008-03-20 07:55:13 51°14.727 2°53.305 277.9 12.7 275 8.7
2008-03-20 07:55:18 51°14.729 2°53.277 278.5 12.7 275 8.6
2008-03-20 07:55:23 51°14.731 2°53.25 278.5 12.6 276 8.7
2008-03-20 07:55:28 51°14.732 2°53.222 278.6 12.7 275 8.8
2008-03-20 07:55:33 51°14.733 2°53.194 278.9 12.7 274 8.7
2008-03-20 07:55:38 51°14.735 2°53.166 278.9 12.7 275 8.6
2008-03-20 07:55:43 51°14.736 2°53.138 277.9 12.7 275 8.7
2008-03-20 07:55:48 51°14.738 2°53.111 278.5 12.7 275 8.7
2008-03-20 07:55:53 51°14.74 2°53.082 279 12.7 275 8.8
2008-03-20 07:55:58 51°14.741 2°53.055 278.5 12.7 275 8.7
2008-03-20 07:56:03 51°14.743 2°53.027 278.5 12.7 275 8.8
2008-03-20 07:56:08 51°14.744 2°52.999 278.6 12.7 276 8.8
2008-03-20 07:56:13 51°14.745 2°52.97 279.2 12.8 273 8.9
2008-03-20 07:56:18 51°14.747 2°52.942 278.2 12.8 274 8.6
2008-03-20 07:56:23 51°14.748 2°52.914 278.1 12.8 273 8.7
2008-03-20 07:56:28 51°14.75 2°52.886 277.2 12.7 275 8.7
2008-03-20 07:56:33 51°14.75 2°52.858 277.8 12.8 272 8.9
2008-03-20 07:56:38 51°14.751 2°52.83 277.1 12.8 273 8.9
2008-03-20 07:56:43 51°14.752 2°52.801 276.4 12.8 272 9.1
2008-03-20 07:56:48 51°14.753 2°52.773 276.1 12.8 272 8.9
2008-03-20 07:56:53 51°14.754 2°52.745 276.2 12.8 273 9.1
2008-03-20 07:56:58 51°14.755 2°52.716 276.5 12.8 274 9.2
2008-03-20 07:57:03 51°14.756 2°52.688 276.8 12.9 274 9.1
2008-03-20 07:57:08 51°14.757 2°52.66 277.6 12.8 273 8.9
2008-03-20 07:57:13 51°14.758 2°52.631 277.6 12.8 274 8.9
2008-03-20 07:57:18 51°14.759 2°52.603 277.2 12.9 273 9.1
2008-03-20 07:57:23 51°14.76 2°52.574 277.2 12.9 273 8.9
2008-03-20 07:57:28 51°14.76 2°52.546 277 12.8 272 8.8
2008-03-20 07:57:33 51°14.761 2°52.518 277 12.9 274 9.3
2008-03-20 07:57:38 51°14.763 2°52.489 277.5 12.9 275 9.1
2008-03-20 07:57:43 51°14.764 2°52.461 278.5 12.9 275 9.1
2008-03-20 07:57:48 51°14.766 2°52.433 279.1 12.9 274 9.3
2008-03-20 07:57:53 51°14.767 2°52.404 278.6 12.9 274 9.3
2008-03-20 07:57:58 51°14.769 2°52.376 278.8 12.9 275 9.5
2008-03-20 07:58:03 51°14.771 2°52.348 279.2 12.8 276 9.2
2008-03-20 07:58:08 51°14.772 2°52.319 279.3 12.9 274 9.3
2008-03-20 07:58:13 51°14.773 2°52.29 279 13 273 9.3
2008-03-20 07:58:18 51°14.774 2°52.262 277.8 12.9 273 9.2
2008-03-20 07:58:23 51°14.775 2°52.234 277.6 12.9 273 9.5
2008-03-20 07:58:28 51°14.776 2°52.206 277.9 12.9 272 9.5
2008-03-20 07:58:33 51°14.777 2°52.177 277 12.9 274 9.6
2008-03-20 07:58:38 51°14.778 2°52.149 276.8 12.8 273 9.3
2008-03-20 07:58:43 51°14.779 2°52.12 277.3 12.8 273 9.4
2008-03-20 07:58:48 51°14.78 2°52.092 277.8 12.9 273 9.7
2008-03-20 07:58:53 51°14.781 2°52.063 277.1 12.8 274 9.7
2008-03-20 07:58:58 51°14.782 2°52.035 277.5 12.8 275 9.7
2008-03-20 07:59:03 51°14.783 2°52.006 278.3 12.8 275 9.5
2008-03-20 07:59:08 51°14.784 2°51.978 278.5 12.9 274 9.5
2008-03-20 07:59:13 51°14.785 2°51.949 278.3 13 273 9.7
2008-03-20 07:59:18 51°14.786 2°51.92 277.9 13 273 9.7
2008-03-20 07:59:23 51°14.787 2°51.892 277.7 13 272 9.6
2008-03-20 07:59:28 51°14.787 2°51.863 277.1 13.1 271 9.9
2008-03-20 07:59:33 51°14.788 2°51.834 276.5 13 272 9.8
2008-03-20 07:59:38 51°14.789 2°51.805 276.9 13.1 272 10
2008-03-20 07:59:43 51°14.79 2°51.777 277.2 13 273 9.6
2008-03-20 07:59:48 51°14.791 2°51.748 277.6 13 273 9.9
2008-03-20 07:59:53 51°14.792 2°51.72 278.9 13 273 10
2008-03-20 07:59:58 51°14.793 2°51.691 278.5 13 273 9.9
2008-03-20 08:00:03 51°14.794 2°51.662 278.1 13 273 10
2008-03-20 08:00:08 51°14.795 2°51.633 277.9 13.1 272 10.3
2008-03-20 08:00:13 51°14.796 2°51.604 278.1 13.2 273 10.2
2008-03-20 08:00:18 51°14.797 2°51.575 278 13.2 273 10.2
2008-03-20 08:00:23 51°14.798 2°51.546 278.6 13.2 272 10.2
2008-03-20 08:00:28 51°14.799 2°51.517 278.3 13.2 273 10.3
2008-03-20 08:00:33 51°14.8 2°51.488 278.2 13.2 273 10.2
2008-03-20 08:00:38 51°14.801 2°51.458 278.4 13.2 272 10.4
2008-03-20 08:00:43 51°14.801 2°51.429 277.8 13.3 272 10.5
2008-03-20 08:00:48 51°14.803 2°51.4 277.8 13.3 274 10.6
2008-03-20 08:00:53 51°14.803 2°51.37 278.2 13.3 272 10.5
2008-03-20 08:00:58 51°14.805 2°51.341 278.6 13.3 273 10.6
2008-03-20 08:01:03 51°14.806 2°51.312 278.6 13.3 273 10.7
2008-03-20 08:01:08 51°14.807 2°51.283 278.6 13.3 274 10.6
2008-03-20 08:01:13 51°14.808 2°51.253 278.6 13.3 274 10.6
2008-03-20 08:01:18 51°14.809 2°51.224 278.2 13.3 274 10.7
2008-03-20 08:01:23 51°14.811 2°51.195 278.3 13.3 275 10.8
2008-03-20 08:01:28 51°14.812 2°51.165 279 13.4 273 10.8
2008-03-20 08:01:33 51°14.813 2°51.136 278.8 13.4 274 10.9
2008-03-20 08:01:38 51°14.814 2°51.107 278.8 13.2 274 10.8
2008-03-20 08:01:43 51°14.816 2°51.077 279 13.3 275 11.1
2008-03-20 08:01:48 51°14.817 2°51.048 279.3 13.3 274 11
2008-03-20 08:01:53 51°14.818 2°51.019 279.2 13.4 273 10.8
2008-03-20 08:01:58 51°14.819 2°50.989 278 13.3 272 10.8
2008-03-20 08:02:03 51°14.82 2°50.96 277.4 13.3 274 10.8
2008-03-20 08:02:08 51°14.821 2°50.931 278.5 13.3 273 11
2008-03-20 08:02:13 51°14.822 2°50.901 277.9 13.2 274 10.9
2008-03-20 08:02:18 51°14.823 2°50.872 278.8 13.3 272 11.2
2008-03-20 08:02:23 51°14.824 2°50.843 278.7 13.2 274 11
2008-03-20 08:02:28 51°14.825 2°50.814 278.1 13.3 273 11
2008-03-20 08:02:33 51°14.826 2°50.784 278.6 13.2 274 11.2
2008-03-20 08:02:38 51°14.827 2°50.755 278.2 13.3 273 11.3
2008-03-20 08:02:43 51°14.829 2°50.726 278.5 13.4 274 11.4
2008-03-20 08:02:48 51°14.83 2°50.697 278.8 13.2 274 11.1
2008-03-20 08:02:53 51°14.831 2°50.667 278.6 13.3 274 11.5
2008-03-20 08:02:58 51°14.832 2°50.638 278.2 13.3 274 11.2
2008-03-20 08:03:03 51°14.833 2°50.608 277.9 13.4 273 11.4
2008-03-20 08:03:08 51°14.835 2°50.579 277.9 13.3 275 11.5
2008-03-20 08:03:13 51°14.836 2°50.55 278.6 13.4 273 11.6
2008-03-20 08:03:18 51°14.837 2°50.52 278.9 13.3 272 11.6
2008-03-20 08:03:23 51°14.837 2°50.49 277.9 13.4 272 11.7
2008-03-20 08:03:28 51°14.838 2°50.461 276.1 13.4 272 11.6
2008-03-20 08:03:33 51°14.838 2°50.431 276.4 13.4 269 11.7
2008-03-20 08:03:38 51°14.838 2°50.402 274.8 13.4 273 11.8
2008-03-20 08:03:43 51°14.839 2°50.372 275 13.3 271 11.7
2008-03-20 08:03:48 51°14.839 2°50.343 275.7 13.4 272 11.7
2008-03-20 08:03:53 51°14.839 2°50.313 275.3 13.4 270 11.7
2008-03-20 08:03:58 51°14.839 2°50.283 275.4 13.5 270 11.6
2008-03-20 08:04:03 51°14.84 2°50.253 274.3 13.5 271 11.7
2008-03-20 08:04:08 51°14.84 2°50.224 274.1 13.4 270 11.6
2008-03-20 08:04:13 51°14.839 2°50.194 274.3 13.4 269 11.8
2008-03-20 08:04:18 51°14.84 2°50.164 273.8 13.4 272 11.9
2008-03-20 08:04:23 51°14.84 2°50.135 274.5 13.4 270 11.8
2008-03-20 08:04:28 51°14.84 2°50.105 274.8 13.4 270 11.9
2008-03-20 08:04:33 51°14.841 2°50.075 275 13.4 272 12
2008-03-20 08:04:38 51°14.841 2°50.046 275.2 13.4 271 11.8
2008-03-20 08:04:43 51°14.842 2°50.016 275 13.3 272 11.9
2008-03-20 08:04:48 51°14.842 2°49.987 275.4 13.3 272 11.9
2008-03-20 08:04:53 51°14.842 2°49.958 276 13.3 270 12.1
2008-03-20 08:04:58 51°14.843 2°49.928 274.9 13.3 271 12.2
2008-03-20 08:05:03 51°14.843 2°49.899 274.5 13.4 270 12.1
2008-03-20 08:05:08 51°14.844 2°49.869 275 13.4 272 12.2
2008-03-20 08:05:13 51°14.844 2°49.84 275.2 13.3 272 11.9
2008-03-20 08:05:18 51°14.844 2°49.811 275.2 13.4 270 12
2008-03-20 08:05:23 51°14.845 2°49.782 275 13.3 271 12.2
2008-03-20 08:05:28 51°14.845 2°49.753 274.6 13.2 271 11.9
2008-03-20 08:05:33 51°14.846 2°49.724 275.4 13.1 273 12.1
2008-03-20 08:05:38 51°14.846 2°49.695 276.1 13.1 270 12.1
2008-03-20 08:05:43 51°14.846 2°49.666 275.3 13.2 271 12.2
2008-03-20 08:05:48 51°14.846 2°49.637 274.7 13.1 271 11.9
2008-03-20 08:05:53 51°14.847 2°49.608 275 13.1 272 12
2008-03-20 08:05:58 51°14.847 2°49.579 275.3 13.2 271 12.1
2008-03-20 08:06:03 51°14.848 2°49.55 275.5 13.1 270 12.2
2008-03-20 08:06:08 51°14.848 2°49.521 275.1 13.1 272 12.4
2008-03-20 08:06:13 51°14.848 2°49.492 276 13.1 270 12.4
2008-03-20 08:06:18 51°14.849 2°49.463 275 13.1 273 12.4
2008-03-20 08:06:23 51°14.85 2°49.434 275.7 13.1 273 12.3
2008-03-20 08:06:28 51°14.85 2°49.406 276.4 13.1 270 12.1
2008-03-20 08:06:33 51°14.851 2°49.377 275 13.1 273 12.5
2008-03-20 08:06:38 51°14.851 2°49.348 276.9 13.1 270 12.2
2008-03-20 08:06:43 51°14.852 2°49.319 275.7 13.2 270 12.4
2008-03-20 08:06:48 51°14.853 2°49.29 274.8 13 273 12.4
2008-03-20 08:06:53 51°14.853 2°49.261 275.7 13.2 270 12.2
2008-03-20 08:06:58 51°14.854 2°49.232 275 13.1 273 12
2008-03-20 08:07:03 51°14.853 2°49.203 275.7 13.2 270 12.2
2008-03-20 08:07:08 51°14.854 2°49.174 274.7 12.9 273 11.9
2008-03-20 08:07:13 51°14.854 2°49.145 275.7 13.1 270 12.1
2008-03-20 08:07:18 51°14.855 2°49.117 275.7 13 273 12.2
2008-03-20 08:07:23 51°14.855 2°49.088 276.3 13.1 271 12.2
2008-03-20 08:07:28 51°14.856 2°49.059 275.7 13.1 272 12.2
2008-03-20 08:07:33 51°14.856 2°49.03 275.4 13 270 12.3
2008-03-20 08:07:38 51°14.857 2°49.001 274.6 13.1 271 12.4
2008-03-20 08:07:43 51°14.856 2°48.972 274.7 13.1 269 12.4
2008-03-20 08:07:48 51°14.857 2°48.944 274.1 13 270 12.3
2008-03-20 08:07:53 51°14.856 2°48.915 273.7 13 269 12.2
2008-03-20 08:07:58 51°14.856 2°48.886 273.4 13 268 12.1
2008-03-20 08:08:03 51°14.855 2°48.857 271.8 13 268 12.1
2008-03-20 08:08:08 51°14.854 2°48.829 271.5 13 267 12.2
2008-03-20 08:08:13 51°14.853 2°48.8 271.3 13.1 266 12.1
2008-03-20 08:08:18 51°14.853 2°48.771 269.8 12.9 271 12.1
2008-03-20 08:08:23 51°14.852 2°48.743 272.1 13 266 12.1
2008-03-20 08:08:28 51°14.851 2°48.714 271 12.9 268 12.1
2008-03-20 08:08:33 51°14.85 2°48.686 270.6 12.8 266 12
2008-03-20 08:08:38 51°14.848 2°48.658 272.1 13 264 12
2008-03-20 08:08:43 51°14.846 2°48.629 267.3 13 265 11.7
2008-03-20 08:08:48 51°14.844 2°48.601 268 12.7 264 11.8
2008-03-20 08:08:53 51°14.842 2°48.573 267.9 12.9 263 11.8
2008-03-20 08:08:58 51°14.841 2°48.545 266.6 12.9 267 11.9
2008-03-20 08:09:03 51°14.839 2°48.516 268.6 12.8 262 12.1
2008-03-20 08:09:08 51°14.837 2°48.488 267.7 12.8 264 12.1
2008-03-20 08:09:13 51°14.836 2°48.46 267.7 12.8 268 12.1
2008-03-20 08:09:18 51°14.835 2°48.432 270.1 12.7 266 11.9
2008-03-20 08:09:23 51°14.832 2°48.404 269.1 12.9 262 12
2008-03-20 08:09:28 51°14.832 2°48.376 267 12.8 267 11.8
2008-03-20 08:09:33 51°14.83 2°48.347 268.7 12.8 264 11.9
2008-03-20 08:09:38 51°14.828 2°48.319 268 12.9 264 11.9
2008-03-20 08:09:43 51°14.827 2°48.29 267.7 13 268 11.9
2008-03-20 08:09:48 51°14.824 2°48.262 268.4 13 263 11.6
2008-03-20 08:09:53 51°14.823 2°48.234 267.5 12.9 265 11.4
2008-03-20 08:09:58 51°14.822 2°48.205 267.3 12.9 266 11.6
2008-03-20 08:10:03 51°14.82 2°48.177 268.9 12.8 266 11.7
2008-03-20 08:10:08 51°14.818 2°48.149 268.3 13 265 11.6
2008-03-20 08:10:13 51°14.817 2°48.12 267.9 12.9 264 11.8
2008-03-20 08:10:18 51°14.816 2°48.092 268.7 12.8 264 12.1
2008-03-20 08:10:23 51°14.814 2°48.063 268 12.8 266 12.2
2008-03-20 08:10:28 51°14.813 2°48.035 268.1 12.9 265 11.7
2008-03-20 08:10:33 51°14.812 2°48.007 268.5 12.8 267 11.9
2008-03-20 08:10:38 51°14.81 2°47.979 268.8 12.8 263 12.2
2008-03-20 08:10:43 51°14.809 2°47.951 267.4 12.7 268 12.5
2008-03-20 08:10:48 51°14.808 2°47.922 269.7 12.8 267 12.7
2008-03-20 08:10:53 51°14.807 2°47.894 270.3 12.8 266 12.7
2008-03-20 08:10:58 51°14.805 2°47.866 268.9 12.7 266 13.4
2008-03-20 08:11:03 51°14.804 2°47.837 268.7 13 264 14.2
2008-03-20 08:11:08 51°14.803 2°47.809 268.1 12.8 266 12.9
2008-03-20 08:11:13 51°14.8 2°47.781 268.4 12.9 262 12.5
2008-03-20 08:11:18 51°14.799 2°47.752 266.7 12.9 267 12.3
2008-03-20 08:11:23 51°14.798 2°47.724 267.2 12.9 265 12.1
2008-03-20 08:11:28 51°14.796 2°47.696 268.5 12.9 264 12.1
2008-03-20 08:11:33 51°14.795 2°47.667 267.7 12.9 266 12.2
2008-03-20 08:11:38 51°14.793 2°47.639 268.1 13 266 12.2
2008-03-20 08:11:43 51°14.791 2°47.61 268.3 13 263 12.3
2008-03-20 08:11:48 51°14.79 2°47.582 267.5 13.1 264 12.7
2008-03-20 08:11:53 51°14.788 2°47.553 267.1 12.9 267 12.4
2008-03-20 08:11:58 51°14.787 2°47.525 268.5 12.9 264 12.5
2008-03-20 08:12:03 51°14.785 2°47.496 267.6 13 265 12.6
2008-03-20 08:12:08 51°14.783 2°47.468 267.7 13.1 264 12.3
2008-03-20 08:12:13 51°14.782 2°47.44 267.4 12.9 267 12.1
2008-03-20 08:12:18 51°14.78 2°47.412 269.2 12.9 264 12.5
2008-03-20 08:12:23 51°14.779 2°47.383 268 12.9 265 12.6
2008-03-20 08:12:28 51°14.777 2°47.355 267.6 13 264 12.6
2008-03-20 08:12:33 51°14.777 2°47.326 267.8 12.9 267 12.8
2008-03-20 08:12:38 51°14.774 2°47.298 268.2 13 263 12.8
2008-03-20 08:12:43 51°14.774 2°47.269 267.5 12.9 268 12.7
2008-03-20 08:12:48 51°14.772 2°47.241 268.9 13 264 12.7
2008-03-20 08:12:53 51°14.77 2°47.212 268.5 12.9 266 12.8
2008-03-20 08:12:57 51°14.77 2°47.19 268.5 12.9 264 12.8
2008-03-20 08:13:03 51°14.767 2°47.156 268.1 13 263 12.9
2008-03-20 08:13:08 51°14.766 2°47.128 266.5 12.9 266 12.6
2008-03-20 08:13:13 51°14.765 2°47.1 267.9 12.7 268 12.4
2008-03-20 08:13:17 51°14.764 2°47.077 269.4 12.8 263 12.7
2008-03-20 08:13:23 51°14.762 2°47.043 267.6 12.9 266 12.6
2008-03-20 08:13:28 51°14.762 2°47.015 268.6 12.7 268 12.5
2008-03-20 08:13:33 51°14.759 2°46.986 270 12.9 262 12.4
2008-03-20 08:13:38 51°14.758 2°46.958 266.8 12.7 267 12.5
2008-03-20 08:13:42 51°14.755 2°46.935 268 12.8 265 12.4
2008-03-20 08:13:48 51°14.755 2°46.901 267.5 12.9 266 12.2
2008-03-20 08:13:53 51°14.753 2°46.873 268.4 12.9 266 12.1
2008-03-20 08:13:58 51°14.752 2°46.845 268.4 12.9 266 12.3
2008-03-20 08:14:02 51°14.75 2°46.822 268 13 266 12
2008-03-20 08:14:08 51°14.749 2°46.787 267.7 12.9 265 11.6
2008-03-20 08:14:13 51°14.747 2°46.759 268 13 264 12.1
2008-03-20 08:14:18 51°14.746 2°46.73 267.7 13 267 11.4
2008-03-20 08:14:22 51°14.745 2°46.708 268.7 12.8 265 11.4
2008-03-20 08:14:28 51°14.743 2°46.674 268.5 12.8 266 11.5
2008-03-20 08:14:33 51°14.742 2°46.646 267.7 12.7 266 10.7
2008-03-20 08:14:38 51°14.74 2°46.617 268.5 12.8 265 11
2008-03-20 08:14:43 51°14.74 2°46.589 268.5 12.8 267 10.8
2008-03-20 08:14:48 51°14.738 2°46.561 268.5 12.8 265 10.1
2008-03-20 08:14:53 51°14.737 2°46.533 268.5 12.8 266 10.2
2008-03-20 08:14:57 51°14.736 2°46.51 268.4 12.9 264 9.9
2008-03-20 08:15:03 51°14.734 2°46.476 268.4 12.8 269 9.9
2008-03-20 08:15:08 51°14.732 2°46.448 269.2 12.8 263 9.8
2008-03-20 08:15:13 51°14.731 2°46.42 268.8 12.7 267 9.5
2008-03-20 08:15:17 51°14.729 2°46.397 267.6 12.8 264 9.3
2008-03-20 08:15:23 51°14.727 2°46.364 267.4 12.7 265 9.1
2008-03-20 08:15:28 51°14.726 2°46.335 267.9 12.8 264 9.1
2008-03-20 08:15:33 51°14.724 2°46.308 267.4 12.8 264 8.9
2008-03-20 08:15:38 51°14.723 2°46.28 266.5 12.8 266 8.9
2008-03-20 08:15:42 51°14.721 2°46.257 267.4 12.8 264 8.8
2008-03-20 08:15:48 51°14.72 2°46.223 267.1 12.8 267 8.5
2008-03-20 08:15:53 51°14.718 2°46.195 268.1 12.8 263 8.9
2008-03-20 08:15:58 51°14.717 2°46.167 267.5 12.7 267 8.4
2008-03-20 08:16:02 51°14.716 2°46.145 267.9 12.8 265 8.6
2008-03-20 08:16:08 51°14.714 2°46.111 269.3 12.8 265 8.6
2008-03-20 08:16:13 51°14.712 2°46.083 268.6 12.8 265 8.5
2008-03-20 08:16:18 51°14.712 2°46.054 268 12.7 267 8.4
2008-03-20 08:16:22 51°14.709 2°46.032 268.7 12.8 264 8.2
2008-03-20 08:16:28 51°14.708 2°45.998 267.4 12.8 264 8.3
2008-03-20 08:16:33 51°14.706 2°45.97 267.7 12.7 264 8.5
2008-03-20 08:16:38 51°14.704 2°45.942 267.4 12.7 265 8.2
2008-03-20 08:16:43 51°14.703 2°45.914 267.3 12.7 266 8.4
2008-03-20 08:16:48 51°14.701 2°45.886 268.8 12.8 265 8.1
2008-03-20 08:16:53 51°14.7 2°45.858 267 12.7 266 8.3
2008-03-20 08:16:58 51°14.698 2°45.83 268.4 12.8 265 8.6
2008-03-20 08:17:03 51°14.697 2°45.802 267.7 12.7 265 8.4
2008-03-20 08:17:08 51°14.694 2°45.773 268.2 12.9 263 8.7
2008-03-20 08:17:13 51°14.694 2°45.745 266.7 12.8 269 8.8
2008-03-20 08:17:17 51°14.693 2°45.722 269.1 12.9 266 8.9
2008-03-20 08:17:23 51°14.691 2°45.689 269.1 12.8 267 9
2008-03-20 08:17:28 51°14.689 2°45.66 269 13 262 9.2
2008-03-20 08:17:33 51°14.688 2°45.631 267.8 12.9 268 9.5
2008-03-20 08:17:38 51°14.687 2°45.603 269.6 13 265 9.6
2008-03-20 08:17:43 51°14.685 2°45.574 268.8 13 267 9.6
2008-03-20 08:17:48 51°14.684 2°45.546 268.5 12.9 265 9.7
2008-03-20 08:17:53 51°14.682 2°45.517 269.1 13.1 265 10.2
2008-03-20 08:17:58 51°14.681 2°45.489 267.7 12.9 265 10.3
2008-03-20 08:18:02 51°14.679 2°45.466 268.2 13.1 264 10.4
2008-03-20 08:18:08 51°14.679 2°45.432 267.2 12.9 269 10.7
2008-03-20 08:18:13 51°14.676 2°45.403 269.9 13.1 261 10.8
2008-03-20 08:18:17 51°14.675 2°45.38 267.4 13 267 10.9
2008-03-20 08:18:22 51°14.673 2°45.351 267.7 13 263 10.9
2008-03-20 08:18:28 51°14.672 2°45.316 267.1 13.1 268 10.9
2008-03-20 08:18:33 51°14.67 2°45.288 268.2 13 263 11
2008-03-20 08:18:38 51°14.669 2°45.259 267.9 13 266 11.3
2008-03-20 08:18:42 51°14.666 2°45.236 268.3 13.3 262 11.2
2008-03-20 08:18:48 51°14.666 2°45.201 266.7 13 270 11.4
2008-03-20 08:18:53 51°14.663 2°45.173 269.5 13.2 263 11.4
2008-03-20 08:18:58 51°14.663 2°45.144 268 12.9 269 11.5
2008-03-20 08:19:03 51°14.661 2°45.116 270.3 13.1 263 11.8
2008-03-20 08:19:08 51°14.66 2°45.087 268.4 12.9 266 11.9
2008-03-20 08:19:13 51°14.658 2°45.058 267.9 13.1 265 12.1
2008-03-20 08:19:18 51°14.656 2°45.029 267.7 13.1 265 12.2
2008-03-20 08:19:23 51°14.655 2°45.001 267.9 13.1 265 12.3
2008-03-20 08:19:28 51°14.653 2°44.972 267.3 13.1 265 12.6
2008-03-20 08:19:33 51°14.652 2°44.943 268.1 13.1 265 12.9
2008-03-20 08:19:38 51°14.65 2°44.915 268.4 13 264 12.9
2008-03-20 08:19:43 51°14.649 2°44.886 268.2 13.1 265 13.2
2008-03-20 08:19:48 51°14.647 2°44.857 268.2 13.1 265 13.2
2008-03-20 08:19:53 51°14.646 2°44.828 267.7 13 266 13.2
2008-03-20 08:19:58 51°14.644 2°44.799 268.1 13.1 265 13.5
2008-03-20 08:20:02 51°14.643 2°44.776 268 13.1 266 13.4
2008-03-20 08:20:08 51°14.641 2°44.742 268.4 13.2 265 13.9
2008-03-20 08:20:13 51°14.64 2°44.713 268.6 13.1 266 13.6
2008-03-20 08:20:17 51°14.639 2°44.69 267.8 13.1 266 13.5
2008-03-20 08:20:22 51°14.637 2°44.661 267.8 13 266 13.7
2008-03-20 08:20:28 51°14.636 2°44.627 268.5 13.1 266 14.2
2008-03-20 08:20:33 51°14.633 2°44.598 268.6 13.1 263 14.2
2008-03-20 08:20:38 51°14.633 2°44.57 267 13 268 14.2
2008-03-20 08:20:42 51°14.631 2°44.546 269.2 13.2 263 14.5
2008-03-20 08:20:48 51°14.629 2°44.512 268.2 13.2 264 14.6
2008-03-20 08:20:53 51°14.628 2°44.483 268.1 12.9 266 14.6
2008-03-20 08:20:58 51°14.625 2°44.454 268.3 13.3 261 14.9
2008-03-20 08:21:03 51°14.624 2°44.426 266.3 12.9 268 14.5
2008-03-20 08:21:08 51°14.623 2°44.397 269.1 12.8 264 14.9
2008-03-20 08:21:13 51°14.62 2°44.368 268.8 13.2 263 14.9
2008-03-20 08:21:18 51°14.619 2°44.34 266.8 12.9 265 15.1
2008-03-20 08:21:23 51°14.616 2°44.311 267.1 13.1 263 15.1
2008-03-20 08:21:28 51°14.615 2°44.282 266.3 13 267 15.2
2008-03-20 08:21:33 51°14.613 2°44.254 268.7 13 262 15.3
2008-03-20 08:21:38 51°14.611 2°44.225 266.5 13.1 264 15.4
2008-03-20 08:21:43 51°14.609 2°44.196 266.3 13.1 266 15.5
2008-03-20 08:21:48 51°14.607 2°44.167 268.1 13.1 264 15.6
2008-03-20 08:21:53 51°14.605 2°44.138 267.7 13.2 263 15.9
2008-03-20 08:21:58 51°14.604 2°44.109 267.5 13.1 265 15.8
2008-03-20 08:22:03 51°14.602 2°44.081 267.3 13.1 263 15.9
2008-03-20 08:22:08 51°14.601 2°44.052 266.9 13.1 267 16.1
2008-03-20 08:22:13 51°14.599 2°44.023 268.3 13.2 264 16.1
2008-03-20 08:22:17 51°14.598 2°44 267.4 13.2 266 15.9
2008-03-20 08:22:22 51°14.596 2°43.97 267.7 13.3 264 16.1
2008-03-20 08:22:28 51°14.594 2°43.935 267.5 13.2 264 15.7
2008-03-20 08:22:33 51°14.592 2°43.906 267.5 13.3 262 16.1
2008-03-20 08:22:37 51°14.59 2°43.883 266.3 13.1 266 16.1
2008-03-20 08:22:42 51°14.59 2°43.854 267.5 13 264 16.1
2008-03-20 08:22:47 51°14.586 2°43.825 267.2 13.2 264 16.2
2008-03-20 08:22:53 51°14.586 2°43.79 266.7 13.1 267 16.2
2008-03-20 08:22:58 51°14.584 2°43.762 269.1 13.1 263 16.2
2008-03-20 08:23:02 51°14.583 2°43.739 267.7 13.1 265 16
2008-03-20 08:23:08 51°14.581 2°43.704 267.7 13 265 16.4
2008-03-20 08:23:13 51°14.579 2°43.675 267.7 13.1 263 16.5
2008-03-20 08:23:18 51°14.578 2°43.646 266.5 13.1 266 16.7
2008-03-20 08:23:23 51°14.575 2°43.617 267.9 13.3 262 16.7
2008-03-20 08:23:28 51°14.573 2°43.589 266.4 13 265 16.5
2008-03-20 08:23:33 51°14.571 2°43.56 266.7 13 266 16.5
2008-03-20 08:23:38 51°14.569 2°43.531 267.9 13 263 16.8
2008-03-20 08:23:43 51°14.568 2°43.502 267.1 13.1 264 16.8
2008-03-20 08:23:48 51°14.566 2°43.473 266.9 13.1 265 16.7
2008-03-20 08:23:53 51°14.564 2°43.444 267.9 13.3 264 16.9
2008-03-20 08:23:58 51°14.563 2°43.415 266.9 13.3 265 17
2008-03-20 08:24:03 51°14.561 2°43.386 267 13.3 265 16.9
2008-03-20 08:24:08 51°14.559 2°43.357 267.5 13.2 264 17.3
2008-03-20 08:24:13 51°14.557 2°43.328 267.5 13.3 264 17.1
2008-03-20 08:24:17 51°14.556 2°43.304 266.9 13.3 265 17
2008-03-20 08:24:23 51°14.553 2°43.269 267.8 13.3 263 17.2
2008-03-20 08:24:28 51°14.551 2°43.24 267 13.2 265 16.9
2008-03-20 08:24:33 51°14.55 2°43.211 267 13.1 264 17.1
2008-03-20 08:24:37 51°14.549 2°43.188 268.3 13.3 266 17.3
2008-03-20 08:24:42 51°14.547 2°43.159 267.8 13.2 265 17.3
2008-03-20 08:24:48 51°14.546 2°43.124 268.1 13 265 17.3
2008-03-20 08:24:53 51°14.543 2°43.095 267.4 13.3 263 17.5
2008-03-20 08:24:58 51°14.543 2°43.066 266.8 13.1 267 17.6
2008-03-20 08:25:02 51°14.541 2°43.043 268.5 13.2 263 17.9
2008-03-20 08:25:08 51°14.539 2°43.008 266.9 13.2 267 17.6
2008-03-20 08:25:13 51°14.538 2°42.979 267.5 13.2 265 17.4
2008-03-20 08:25:18 51°14.536 2°42.95 267.7 13.2 265 17.5
2008-03-20 08:25:23 51°14.534 2°42.921 267.7 13.2 264 17.3
2008-03-20 08:25:28 51°14.533 2°42.892 267.6 13.2 265 17.6
2008-03-20 08:25:33 51°14.531 2°42.863 266.8 13.2 265 17.4
2008-03-20 08:25:38 51°14.529 2°42.834 267.4 13.3 265 17.5
2008-03-20 08:25:43 51°14.527 2°42.804 267 13.4 264 17.6
2008-03-20 08:25:48 51°14.526 2°42.775 267 13.2 265 17.5
2008-03-20 08:25:53 51°14.524 2°42.746 267.6 13.3 263 17.6
2008-03-20 08:25:58 51°14.523 2°42.717 266.8 13.3 266 17.8
2008-03-20 08:26:03 51°14.521 2°42.688 267.3 13.3 264 17.6
2008-03-20 08:26:08 51°14.519 2°42.659 267.2 13.2 266 17.6
2008-03-20 08:26:13 51°14.517 2°42.63 266.9 13.3 264 17.5
2008-03-20 08:26:18 51°14.516 2°42.601 267 13.3 264 17.6
2008-03-20 08:26:23 51°14.514 2°42.572 267 13 265 17.4
2008-03-20 08:26:28 51°14.512 2°42.543 267.4 13.1 265 17.3
2008-03-20 08:26:33 51°14.511 2°42.515 267.4 13 266 17.2
2008-03-20 08:26:37 51°14.509 2°42.492 268 13 264 17.2
2008-03-20 08:26:43 51°14.507 2°42.458 267.5 12.8 265 17.2
2008-03-20 08:26:48 51°14.505 2°42.429 267.7 13.2 263 17.2
2008-03-20 08:26:53 51°14.504 2°42.4 267 12.9 267 17.3
2008-03-20 08:26:57 51°14.502 2°42.378 268.2 12.7 262 17.2
2008-03-20 08:27:03 51°14.499 2°42.344 266.5 13 265 17
2008-03-20 08:27:08 51°14.499 2°42.315 267.4 13.1 266 17
2008-03-20 08:27:13 51°14.496 2°42.287 268.4 12.7 264 16.8
2008-03-20 08:27:18 51°14.494 2°42.259 267.2 12.8 262 16.9
2008-03-20 08:27:22 51°14.493 2°42.236 266.1 13 265 16.8
2008-03-20 08:27:28 51°14.49 2°42.202 267.5 13 263 16.8
2008-03-20 08:27:33 51°14.489 2°42.174 267 12.7 265 16.1
2008-03-20 08:27:38 51°14.486 2°42.146 267.7 12.9 263 15.8
2008-03-20 08:27:43 51°14.484 2°42.117 267.1 13.1 264 14.7
2008-03-20 08:27:48 51°14.482 2°42.089 266.8 13 265 15.5
2008-03-20 08:27:53 51°14.479 2°42.061 267.7 12.8 261 15.6
2008-03-20 08:27:58 51°14.478 2°42.033 266.4 12.9 264 15.4
2008-03-20 08:28:02 51°14.476 2°42.01 267 13.1 264 15.3
2008-03-20 08:28:08 51°14.475 2°41.976 267.8 12.9 265 15.4
2008-03-20 08:28:13 51°14.472 2°41.948 268.1 12.8 262 15.3
2008-03-20 08:28:18 51°14.471 2°41.919 266.7 12.9 267 15.1
2008-03-20 08:28:23 51°14.468 2°41.89 268.3 13.2 261 15.1
2008-03-20 08:28:28 51°14.467 2°41.862 267.2 12.8 267 15
2008-03-20 08:28:33 51°14.464 2°41.834 267.7 12.9 260 15
2008-03-20 08:28:37 51°14.463 2°41.811 266.3 13 265 14.8
2008-03-20 08:28:43 51°14.46 2°41.777 267.4 12.9 264 14.4
2008-03-20 08:28:48 51°14.458 2°41.749 267.9 12.7 263 14.2
2008-03-20 08:28:53 51°14.456 2°41.721 267 12.9 263 14.4
2008-03-20 08:28:57 51°14.456 2°41.698 267 12.8 267 14.3
2008-03-20 08:29:03 51°14.452 2°41.664 268.6 13.1 261 14.3
2008-03-20 08:29:08 51°14.451 2°41.636 267.7 12.6 265 14
2008-03-20 08:29:13 51°14.448 2°41.608 267.4 12.8 260 14.2
2008-03-20 08:29:18 51°14.447 2°41.58 266.6 12.7 265 14.1
2008-03-20 08:29:23 51°14.444 2°41.552 266.6 12.8 262 13.9
2008-03-20 08:29:28 51°14.443 2°41.524 266.9 12.7 266 14.1
2008-03-20 08:29:33 51°14.439 2°41.496 267.4 12.9 261 13.7
2008-03-20 08:29:38 51°14.438 2°41.468 265.6 12.9 264 13.7
2008-03-20 08:29:43 51°14.436 2°41.44 265.9 12.8 264 13.7
2008-03-20 08:29:48 51°14.433 2°41.412 267 12.8 263 13.3
2008-03-20 08:29:53 51°14.432 2°41.383 266.4 13 264 12.1
2008-03-20 08:29:58 51°14.431 2°41.355 267.6 12.9 265 13.1
2008-03-20 08:30:02 51°14.429 2°41.332 268.5 12.8 264 13.8
2008-03-20 08:30:08 51°14.427 2°41.298 267.4 12.8 265 14
2008-03-20 08:30:13 51°14.425 2°41.27 267.5 13.1 265 13.9
2008-03-20 08:30:18 51°14.423 2°41.241 267.3 12.8 265 14
2008-03-20 08:30:23 51°14.421 2°41.213 267.9 12.7 262 14.3
2008-03-20 08:30:28 51°14.419 2°41.185 266.3 12.9 263 14.3
2008-03-20 08:30:33 51°14.417 2°41.156 265.5 12.9 266 14.4
2008-03-20 08:30:38 51°14.415 2°41.128 268.1 12.9 262 14.5
2008-03-20 08:30:43 51°14.412 2°41.1 266.4 12.8 263 14.6
2008-03-20 08:30:48 51°14.41 2°41.072 265.2 12.9 263 14.3
2008-03-20 08:30:53 51°14.409 2°41.043 266.4 12.9 266 14.2
2008-03-20 08:30:57 51°14.407 2°41.02 268.5 12.8 263 13.7
2008-03-20 08:31:03 51°14.406 2°40.987 267.2 12.6 264 14.1
2008-03-20 08:31:08 51°14.403 2°40.959 267.8 13 261 13.8
2008-03-20 08:31:13 51°14.401 2°40.93 265.3 12.9 265 13.9
2008-03-20 08:31:17 51°14.399 2°40.908 267.1 12.7 262 14
2008-03-20 08:31:23 51°14.397 2°40.875 266.5 12.7 264 14
2008-03-20 08:31:28 51°14.396 2°40.846 267 12.8 265 13.8
2008-03-20 08:31:33 51°14.393 2°40.818 268.3 13.1 263 13.6
2008-03-20 08:31:38 51°14.393 2°40.79 266.3 12.6 269 13.5
2008-03-20 08:31:42 51°14.391 2°40.768 269.8 12.7 263 13.5
2008-03-20 08:31:48 51°14.39 2°40.734 268.4 12.8 268 13.7
2008-03-20 08:31:53 51°14.389 2°40.706 269.2 12.9 264 13.7
2008-03-20 08:31:58 51°14.387 2°40.677 268.1 12.8 265 13.6
2008-03-20 08:32:02 51°14.387 2°40.655 267.8 12.5 267 13.4
2008-03-20 08:32:08 51°14.383 2°40.622 268.9 12.8 262 13.4
2008-03-20 08:32:13 51°14.383 2°40.593 266.4 12.8 269 13.5
2008-03-20 08:32:18 51°14.382 2°40.565 268.7 12.7 264 13.3
2008-03-20 08:32:22 51°14.381 2°40.543 268.1 12.6 266 13.6
2008-03-20 08:32:28 51°14.379 2°40.509 267.5 12.7 264 13.3
2008-03-20 08:32:33 51°14.377 2°40.481 267.7 12.6 264 13.3
2008-03-20 08:32:38 51°14.376 2°40.454 266.6 12.6 266 13.4
2008-03-20 08:32:43 51°14.374 2°40.426 267.3 12.6 263 13.7
2008-03-20 08:32:48 51°14.373 2°40.398 267 12.6 267 14
2008-03-20 08:32:53 51°14.371 2°40.371 267.7 12.5 265 13.7
2008-03-20 08:32:58 51°14.37 2°40.343 267.7 12.7 265 13.8
2008-03-20 08:33:03 51°14.368 2°40.315 267.9 12.5 265 13.8
2008-03-20 08:33:08 51°14.367 2°40.287 267.4 12.6 265 13.7
2008-03-20 08:33:13 51°14.365 2°40.259 266.8 12.7 265 13.4
2008-03-20 08:33:17 51°14.364 2°40.237 267.3 12.6 265 13.5
2008-03-20 08:33:23 51°14.362 2°40.205 267.7 12.3 263 12.8
2008-03-20 08:33:28 51°14.361 2°40.177 266.3 12.6 267 12.7
2008-03-20 08:33:33 51°14.359 2°40.149 267.2 12.7 265 12
2008-03-20 08:33:38 51°14.357 2°40.122 267.5 12.4 263 11.5
2008-03-20 08:33:43 51°14.356 2°40.095 266.2 12.4 265 12
2008-03-20 08:33:48 51°14.354 2°40.067 266.7 12.9 264 12.6
2008-03-20 08:33:53 51°14.353 2°40.039 266.5 12.7 267 12.8
2008-03-20 08:33:58 51°14.352 2°40.012 267.9 12.4 263 13.1
2008-03-20 08:34:02 51°14.349 2°39.99 266.5 12.6 265 13.2
2008-03-20 08:34:08 51°14.349 2°39.956 265.1 12.6 267 13.1
2008-03-20 08:34:13 51°14.348 2°39.928 269.3 12.5 267 13.3
2008-03-20 08:34:18 51°14.346 2°39.9 269.1 12.7 264 13.2
2008-03-20 08:34:22 51°14.346 2°39.878 266.8 12.4 270 13.3
2008-03-20 08:34:28 51°14.344 2°39.845 269.5 12.7 263 13.3
2008-03-20 08:34:33 51°14.343 2°39.817 267.7 12.6 266 13.5
2008-03-20 08:34:38 51°14.341 2°39.79 267.2 12.5 266 13.1
2008-03-20 08:34:43 51°14.34 2°39.762 267.6 12.6 264 13.3
2008-03-20 08:34:48 51°14.337 2°39.734 266.6 12.6 264 13.2
2008-03-20 08:34:53 51°14.337 2°39.707 267.4 12.3 265 13.2
2008-03-20 08:34:58 51°14.334 2°39.679 267.1 12.8 262 13
2008-03-20 08:35:03 51°14.333 2°39.651 264 12.5 267 12.9
2008-03-20 08:35:08 51°14.332 2°39.624 267.8 12.3 266 12.8
2008-03-20 08:35:13 51°14.329 2°39.597 267.9 12.7 263 13.2
2008-03-20 08:35:18 51°14.329 2°39.569 266.1 12.6 269 13
2008-03-20 08:35:23 51°14.327 2°39.541 269.7 12.5 261 12.8
2008-03-20 08:35:28 51°14.325 2°39.513 266 12.6 265 13
2008-03-20 08:35:33 51°14.323 2°39.486 264.6 12.5 265 13.1
2008-03-20 08:35:37 51°14.321 2°39.463 267.5 12.8 263 12.7
2008-03-20 08:35:43 51°14.32 2°39.43 265.1 12.6 267 13.2
2008-03-20 08:35:48 51°14.318 2°39.402 267.7 12.6 263 12.9
2008-03-20 08:35:53 51°14.316 2°39.374 266 12.7 265 13.3
2008-03-20 08:35:58 51°14.315 2°39.346 267.7 12.6 265 12.9
2008-03-20 08:36:03 51°14.312 2°39.319 267.7 12.6 263 13.3
2008-03-20 08:36:08 51°14.311 2°39.291 266.3 12.4 266 12.9
2008-03-20 08:36:13 51°14.309 2°39.264 268.2 12.6 261 13.3
2008-03-20 08:36:17 51°14.308 2°39.242 266.2 12.4 268 13.4
2008-03-20 08:36:22 51°14.307 2°39.214 268.4 12.4 266 13
2008-03-20 08:36:28 51°14.305 2°39.181 269.2 12.5 265 13.2
2008-03-20 08:36:33 51°14.304 2°39.154 267.4 12.4 265 12.4
2008-03-20 08:36:38 51°14.302 2°39.126 267.9 12.4 266 12.4
2008-03-20 08:36:42 51°14.3 2°39.104 268.4 12.4 263 12.4
2008-03-20 08:36:48 51°14.299 2°39.071 266.5 12.5 267 12.7
2008-03-20 08:36:53 51°14.297 2°39.044 268 12.6 264 13.5
2008-03-20 08:36:58 51°14.295 2°39.016 267.7 12.5 265 13.4
2008-03-20 08:37:03 51°14.294 2°38.988 267.1 12.6 265 14.2
2008-03-20 08:37:08 51°14.292 2°38.96 267.8 12.6 263 14.7
2008-03-20 08:37:13 51°14.289 2°38.933 266.3 12.7 262 14.6
2008-03-20 08:37:18 51°14.286 2°38.905 265 12.7 260 14.3
2008-03-20 08:37:23 51°14.284 2°38.877 263.8 12.7 263 14.3
2008-03-20 08:37:28 51°14.281 2°38.85 264.5 12.6 259 14.4
2008-03-20 08:37:33 51°14.278 2°38.823 262.9 12.7 261 14.7
2008-03-20 08:37:38 51°14.276 2°38.795 263.2 12.8 263 15
2008-03-20 08:37:43 51°14.273 2°38.767 264.8 12.8 260 15.2
2008-03-20 08:37:48 51°14.27 2°38.739 263.8 12.8 260 14.9
2008-03-20 08:37:53 51°14.266 2°38.712 262.2 12.8 259 14.8
2008-03-20 08:37:58 51°14.261 2°38.684 261.5 13.1 254 15.1
2008-03-20 08:38:03 51°14.258 2°38.656 258 12.8 259 15.5
2008-03-20 08:38:08 51°14.253 2°38.629 260.6 12.9 256 15.6
2008-03-20 08:38:13 51°14.249 2°38.601 259.7 13 256 15.9
2008-03-20 08:38:17 51°14.246 2°38.578 258.3 13.1 256 16.3
2008-03-20 08:38:23 51°14.241 2°38.545 258.5 12.9 258 16.1
2008-03-20 08:38:28 51°14.236 2°38.517 259.1 13.1 255 16.8
2008-03-20 08:38:33 51°14.233 2°38.489 258.4 13 259 16.8
2008-03-20 08:38:38 51°14.229 2°38.461 259.7 13 256 17.4
2008-03-20 08:38:42 51°14.225 2°38.439 259.2 13 258 17.6
2008-03-20 08:38:48 51°14.221 2°38.405 258.8 12.9 257 17.6
2008-03-20 08:38:53 51°14.215 2°38.377 259.6 13.2 254 17.9
2008-03-20 08:38:58 51°14.213 2°38.349 258.1 12.7 260 18.1
2008-03-20 08:39:03 51°14.208 2°38.322 260.7 13 254 18.3
2008-03-20 08:39:08 51°14.204 2°38.294 258.3 12.9 258 18.2
2008-03-20 08:39:13 51°14.198 2°38.266 257.9 13.1 253 18
2008-03-20 08:39:18 51°14.196 2°38.238 256.9 12.8 261 18.3
2008-03-20 08:39:23 51°14.191 2°38.21 260.4 13 254 18.2
2008-03-20 08:39:28 51°14.188 2°38.182 258.7 12.9 261 18.1
2008-03-20 08:39:33 51°14.184 2°38.155 260.5 12.9 257 18.3
2008-03-20 08:39:38 51°14.18 2°38.127 260.5 13 260 18.5
2008-03-20 08:39:43 51°14.177 2°38.099 260.7 12.9 260 18.5
2008-03-20 08:39:48 51°14.172 2°38.072 261.4 13 257 18.7
2008-03-20 08:39:53 51°14.17 2°38.043 260.4 12.9 261 19.1
2008-03-20 08:39:58 51°14.165 2°38.016 262 12.9 256 19
2008-03-20 08:40:03 51°14.162 2°37.988 260.8 13 259 19.4
2008-03-20 08:40:08 51°14.159 2°37.959 261.1 13 260 19.3
2008-03-20 08:40:13 51°14.155 2°37.932 261.5 13 259 19.4
2008-03-20 08:40:17 51°14.153 2°37.909 261.2 12.9 259 19.5
2008-03-20 08:40:23 51°14.149 2°37.875 261.3 13.1 261 19.8
2008-03-20 08:40:28 51°14.145 2°37.847 261.8 13.1 257 19.1
2008-03-20 08:40:33 51°14.142 2°37.819 260.6 12.9 261 19.5
2008-03-20 08:40:37 51°14.139 2°37.797 261.3 13.1 258 19.7
2008-03-20 08:40:42 51°14.136 2°37.768 260.8 13.1 260 19.7
2008-03-20 08:40:48 51°14.131 2°37.734 261.3 13.1 258 20.3
2008-03-20 08:40:53 51°14.128 2°37.706 260.4 13.1 260 19.6
2008-03-20 08:40:58 51°14.124 2°37.678 261.3 13.1 257 20.2
2008-03-20 08:41:02 51°14.122 2°37.655 260.7 13.1 260 19.6
2008-03-20 08:41:08 51°14.118 2°37.621 260.9 13.1 260 20.2
2008-03-20 08:41:13 51°14.114 2°37.593 262.1 13.2 258 19.9
2008-03-20 08:41:18 51°14.11 2°37.564 260.6 13.3 258 19.8
2008-03-20 08:41:23 51°14.108 2°37.536 260.8 13 261 19.8
2008-03-20 08:41:28 51°14.103 2°37.507 261.9 13.3 255 19.5
2008-03-20 08:41:33 51°14.1 2°37.479 258.9 13.1 262 19
2008-03-20 08:41:38 51°14.097 2°37.45 261.9 13.1 257 19.4
2008-03-20 08:41:43 51°14.094 2°37.422 261.4 13.1 260 19.2
2008-03-20 08:41:48 51°14.09 2°37.394 261.6 13 259 18.8
2008-03-20 08:41:53 51°14.087 2°37.366 261.1 12.9 261 18.9
2008-03-20 08:41:58 51°14.083 2°37.337 262.2 13.1 259 18.6
2008-03-20 08:42:03 51°14.08 2°37.309 261.4 13 260 18.7
2008-03-20 08:42:08 51°14.076 2°37.281 261.7 13 256 18.7
2008-03-20 08:42:13 51°14.072 2°37.252 260 13.3 260 18.3
2008-03-20 08:42:17 51°14.07 2°37.229 260 12.9 260 18.1
2008-03-20 08:42:23 51°14.067 2°37.195 262.6 13 259 18.2
2008-03-20 08:42:28 51°14.064 2°37.167 261.3 13 261 17.8
2008-03-20 08:42:33 51°14.061 2°37.138 263 12.9 260 17.8
2008-03-20 08:42:37 51°14.057 2°37.116 262.3 13 257 17.6
2008-03-20 08:42:42 51°14.054 2°37.088 259.2 12.9 259 17.7
2008-03-20 08:42:48 51°14.05 2°37.054 260.7 12.9 260 17.5
2008-03-20 08:42:53 51°14.047 2°37.026 261.3 12.8 259 17.7
2008-03-20 08:42:58 51°14.043 2°36.998 261 13 258 17.2
2008-03-20 08:43:02 51°14.042 2°36.976 261.2 12.7 263 17.4
2008-03-20 08:43:08 51°14.036 2°36.943 262.7 12.9 257 17.2
2008-03-20 08:43:13 51°14.034 2°36.915 259.3 12.9 262 16.9
2008-03-20 08:43:18 51°14.03 2°36.887 262.4 12.8 260 16.7
2008-03-20 08:43:23 51°14.027 2°36.859 262.3 12.7 258 16.6
2008-03-20 08:43:28 51°14.024 2°36.831 260.7 13 261 16.3
2008-03-20 08:43:33 51°14.022 2°36.803 260.6 12.7 261 16.6
2008-03-20 08:43:38 51°14.018 2°36.775 262.6 12.7 259 16.4
2008-03-20 08:43:43 51°14.015 2°36.747 260.8 13 261 16.6
2008-03-20 08:43:48 51°14.012 2°36.719 260.7 13.1 261 16.4
2008-03-20 08:43:53 51°14.009 2°36.691 262.4 12.4 260 16.2
2008-03-20 08:43:58 51°14.005 2°36.664 260.5 12.9 257 16.2
2008-03-20 08:44:03 51°14.003 2°36.635 258.6 13.1 263 15.8
2008-03-20 08:44:08 51°14.001 2°36.608 262.6 12.6 263 16.1
2008-03-20 08:44:13 51°13.997 2°36.581 265.4 12.4 257 16.2
2008-03-20 08:44:18 51°13.993 2°36.554 259.7 12.7 257 15.9
2008-03-20 08:44:23 51°13.99 2°36.525 256.9 12.9 261 15.8
2008-03-20 08:44:28 51°13.988 2°36.497 260.6 12.6 263 15.7
2008-03-20 08:44:33 51°13.986 2°36.47 263.8 12.3 261 15.8
2008-03-20 08:44:38 51°13.982 2°36.443 262.3 12.8 258 15.5
2008-03-20 08:44:43 51°13.98 2°36.414 260.4 13.1 263 15.4
2008-03-20 08:44:48 51°13.977 2°36.387 262.7 12.4 259 15.5
2008-03-20 08:44:53 51°13.973 2°36.36 261.6 12.5 256 15.9
2008-03-20 08:44:57 51°13.971 2°36.338 258.2 12.8 261 15.2
2008-03-20 08:45:03 51°13.967 2°36.304 260.4 12.9 261 15.1
2008-03-20 08:45:08 51°13.965 2°36.277 262.1 12.5 261 15.5
2008-03-20 08:45:13 51°13.961 2°36.249 262.2 12.7 257 15.4
2008-03-20 08:45:18 51°13.959 2°36.222 260.5 12.7 264 15.3
2008-03-20 08:45:22 51°13.956 2°36.2 262.1 12.7 259 15
2008-03-20 08:45:28 51°13.952 2°36.167 260.1 12.6 260 15.2
2008-03-20 08:45:33 51°13.95 2°36.14 260.5 12.4 261 15
2008-03-20 08:45:38 51°13.946 2°36.112 261.9 12.6 258 15.5
2008-03-20 08:45:43 51°13.944 2°36.084 259.7 12.9 263 15
2008-03-20 08:45:48 51°13.942 2°36.057 262.3 12.4 265 15.4
2008-03-20 08:45:53 51°13.939 2°36.031 265.5 12.1 258 15
2008-03-20 08:45:58 51°13.935 2°36.003 261.7 12.9 257 15
2008-03-20 08:46:02 51°13.934 2°35.981 257.6 12.5 265 15
2008-03-20 08:46:08 51°13.93 2°35.949 262.1 12.5 260 14.9
2008-03-20 08:46:13 51°13.927 2°35.922 261.9 12.3 261 14.9
2008-03-20 08:46:18 51°13.924 2°35.895 262.4 12.5 259 15
2008-03-20 08:46:23 51°13.921 2°35.867 261 12.7 260 14.7
2008-03-20 08:46:28 51°13.92 2°35.84 260 12.2 266 14.7
2008-03-20 08:46:33 51°13.917 2°35.813 264.3 12.3 259 15
2008-03-20 08:46:38 51°13.915 2°35.786 261.3 12.5 264 14.4
2008-03-20 08:46:43 51°13.911 2°35.758 262.2 12.7 258 15
2008-03-20 08:46:48 51°13.91 2°35.731 261.2 12.4 264 14.9
2008-03-20 08:46:53 51°13.906 2°35.704 261.9 12.3 258 14.9
2008-03-20 08:46:57 51°13.904 2°35.682 260.5 12.6 262 14.9
2008-03-20 08:47:03 51°13.9 2°35.649 260.7 12.7 260 14.9
2008-03-20 08:47:08 51°13.898 2°35.622 261.1 12.4 262 13.9
2008-03-20 08:47:13 51°13.894 2°35.596 261.6 12.2 258 14.5
2008-03-20 08:47:18 51°13.892 2°35.568 259.7 12.6 261 14.5
2008-03-20 08:47:23 51°13.889 2°35.541 261 12.5 261 14.5
2008-03-20 08:47:28 51°13.885 2°35.515 261.2 12.1 258 14.3
2008-03-20 08:47:33 51°13.883 2°35.488 260.5 12.3 262 14.4
2008-03-20 08:47:38 51°13.879 2°35.461 260.5 12.7 257 13.3
2008-03-20 08:47:43 51°13.878 2°35.435 259.9 11.9 265 14.2
2008-03-20 08:47:48 51°13.873 2°35.408 263.6 12.4 256 14
2008-03-20 08:47:53 51°13.872 2°35.38 259.3 12.5 263 14.1
2008-03-20 08:47:58 51°13.868 2°35.354 261.1 12.5 259 14
2008-03-20 08:48:02 51°13.866 2°35.332 261.2 12 262 13.9
2008-03-20 08:48:08 51°13.863 2°35.301 261.1 12.3 260 14.1
2008-03-20 08:48:13 51°13.861 2°35.273 261.5 12.6 263 14.2
2008-03-20 08:48:18 51°13.858 2°35.246 262.1 12.4 261 13.9
2008-03-20 08:48:23 51°13.855 2°35.22 261.3 12.1 260 14.1
2008-03-20 08:48:28 51°13.852 2°35.193 260.4 12.3 261 14.4
2008-03-20 08:48:33 51°13.849 2°35.165 261 12.7 259 14.4
2008-03-20 08:48:38 51°13.847 2°35.138 260.9 12.3 263 13.9
2008-03-20 08:48:43 51°13.844 2°35.112 262 12.1 258 11.4
2008-03-20 08:48:48 51°13.841 2°35.085 260.1 12.5 261 12.2
2008-03-20 08:48:53 51°13.84 2°35.058 259.4 12.3 265 13.3
2008-03-20 08:48:58 51°13.837 2°35.032 264.8 12.1 263 12.7
2008-03-20 08:49:03 51°13.834 2°35.005 263.7 12.5 259 13
2008-03-20 08:49:08 51°13.833 2°34.977 260.8 12.6 266 13.2
2008-03-20 08:49:13 51°13.831 2°34.95 264.1 12 263 13.6
2008-03-20 08:49:17 51°13.828 2°34.93 264.5 12 259 13.6
2008-03-20 08:49:23 51°13.824 2°34.897 260.2 12.7 259 13.5
2008-03-20 08:49:28 51°13.822 2°34.869 259.1 12.5 265 13.8
2008-03-20 08:49:33 51°13.82 2°34.843 263.4 11.9 261 13.8
2008-03-20 08:49:38 51°13.817 2°34.817 263.7 12.1 260 14.4
2008-03-20 08:49:43 51°13.814 2°34.789 261.1 12.7 263 15
2008-03-20 08:49:48 51°13.812 2°34.762 262.7 12.4 262 15.7
2008-03-20 08:49:53 51°13.808 2°34.736 262.6 12.3 256 16.4
2008-03-20 08:49:58 51°13.806 2°34.708 259.7 12.5 264 17.3
2008-03-20 08:50:02 51°13.804 2°34.686 261.9 12.5 264 17.4
2008-03-20 08:50:08 51°13.801 2°34.654 264 12.4 258 17.9
2008-03-20 08:50:13 51°13.798 2°34.626 260.6 12.6 259 18.5
2008-03-20 08:50:18 51°13.796 2°34.599 260.1 12.6 263 19.3
2008-03-20 08:50:22 51°13.793 2°34.577 261.9 12.4 259 19.3
2008-03-20 08:50:28 51°13.789 2°34.544 260.5 12.7 260 19.7
2008-03-20 08:50:33 51°13.787 2°34.516 261.8 12.6 262 20.2
2008-03-20 08:50:38 51°13.783 2°34.489 261.9 12.6 258 20.4
2008-03-20 08:50:43 51°13.782 2°34.462 260.4 12.5 263 20.9
2008-03-20 08:50:48 51°13.778 2°34.434 261.9 12.7 259 22
2008-03-20 08:50:53 51°13.775 2°34.407 261 12.6 260 21.9
2008-03-20 08:50:58 51°13.773 2°34.38 259.8 12.5 261 21.9
2008-03-20 08:51:03 51°13.769 2°34.352 262 12.6 259 21.9
2008-03-20 08:51:08 51°13.766 2°34.325 260.8 12.6 260 21.9
2008-03-20 08:51:13 51°13.762 2°34.298 260.5 12.7 257 22.9
2008-03-20 08:51:18 51°13.759 2°34.27 260 12.7 261 22.6
2008-03-20 08:51:23 51°13.755 2°34.243 260.6 12.7 257 23
2008-03-20 08:51:28 51°13.752 2°34.215 260.5 12.8 259 23.1
2008-03-20 08:51:33 51°13.749 2°34.187 260.8 12.7 261 23
2008-03-20 08:51:38 51°13.745 2°34.16 260.9 12.8 257 22.5
2008-03-20 08:51:43 51°13.743 2°34.132 259.9 12.7 263 23.3
2008-03-20 08:51:48 51°13.74 2°34.104 261.8 12.7 258 23
2008-03-20 08:51:53 51°13.737 2°34.077 260.7 12.8 262 23.5
2008-03-20 08:51:58 51°13.733 2°34.049 262 12.8 258 23.5
2008-03-20 08:52:03 51°13.731 2°34.021 260.5 12.5 261 23.3
2008-03-20 08:52:08 51°13.726 2°33.994 261.1 12.9 256 23.7
2008-03-20 08:52:13 51°13.724 2°33.966 259.9 12.6 263 23.1
2008-03-20 08:52:18 51°13.721 2°33.939 262.1 12.5 256 23.3
2008-03-20 08:52:22 51°13.717 2°33.917 261.1 12.7 257 23.2
2008-03-20 08:52:28 51°13.713 2°33.884 258.6 12.6 259 23
2008-03-20 08:52:33 51°13.71 2°33.857 260.1 12.8 260 23
2008-03-20 08:52:38 51°13.708 2°33.829 259.4 12.5 263 23
2008-03-20 08:52:43 51°13.705 2°33.802 262.4 12.6 260 23
2008-03-20 08:52:48 51°13.703 2°33.774 262.5 12.7 265 22.9
2008-03-20 08:52:53 51°13.702 2°33.746 264.8 12.4 266 22.9
2008-03-20 08:52:58 51°13.7 2°33.719 267.2 12.5 262 23
2008-03-20 08:53:03 51°13.698 2°33.691 264.6 12.5 266 23.4
2008-03-20 08:53:08 51°13.696 2°33.664 265.9 12.7 263 23.1
2008-03-20 08:53:13 51°13.695 2°33.636 265.7 12.6 265 23.4
2008-03-20 08:53:18 51°13.693 2°33.608 266.8 12.6 263 23.2
2008-03-20 08:53:23 51°13.691 2°33.58 266.5 12.7 265 23.2
2008-03-20 08:53:28 51°13.69 2°33.552 266.4 12.7 266 23.2
2008-03-20 08:53:33 51°13.687 2°33.524 267.7 12.7 263 22.8
2008-03-20 08:53:38 51°13.686 2°33.496 266.3 12.8 265 23.2
2008-03-20 08:53:43 51°13.684 2°33.467 266.5 13.1 263 22.8
2008-03-20 08:53:48 51°13.685 2°33.44 266 12.5 272 23.3
2008-03-20 08:53:53 51°13.683 2°33.41 270.1 13.2 265 23.2
2008-03-20 08:53:58 51°13.686 2°33.383 269.8 12.5 278 22.9
2008-03-20 08:54:03 51°13.685 2°33.355 275.9 12.7 270 23.1
2008-03-20 08:54:08 51°13.686 2°33.327 275 12.8 274 22.9
2008-03-20 08:54:13 51°13.686 2°33.299 274.8 12.6 270 23.3
2008-03-20 08:54:17 51°13.686 2°33.276 273.4 12.6 274 23.3
2008-03-20 08:54:23 51°13.687 2°33.243 275 12.5 270 23.7
2008-03-20 08:54:28 51°13.687 2°33.215 274.2 12.6 269 23.7
2008-03-20 08:54:33 51°13.688 2°33.188 272.8 12.5 273 23.6
2008-03-20 08:54:38 51°13.688 2°33.16 274.8 12.6 269 24.3
2008-03-20 08:54:42 51°13.689 2°33.137 274 12.6 274 24
2008-03-20 08:54:48 51°13.689 2°33.103 275.4 12.9 268 24.4
2008-03-20 08:54:53 51°13.69 2°33.076 274 12.6 274 25
2008-03-20 08:54:58 51°13.69 2°33.048 275.4 12.7 270 24.8
2008-03-20 08:55:03 51°13.691 2°33.019 274.7 12.7 272 25
2008-03-20 08:55:08 51°13.692 2°32.992 275 12.6 275 24.9
2008-03-20 08:55:13 51°13.692 2°32.964 276.5 12.7 270 24.8
2008-03-20 08:55:18 51°13.693 2°32.936 274.6 12.6 274 25.1
2008-03-20 08:55:23 51°13.693 2°32.908 276.2 12.7 270 24.9
2008-03-20 08:55:28 51°13.694 2°32.88 274.6 12.6 273 25.1
2008-03-20 08:55:33 51°13.695 2°32.851 275.4 12.7 270 25.4
2008-03-20 08:55:38 51°13.695 2°32.823 274.9 12.7 271 25
2008-03-20 08:55:43 51°13.696 2°32.795 274.6 12.7 272 25.1
2008-03-20 08:55:48 51°13.696 2°32.766 275 12.8 272 25
2008-03-20 08:55:53 51°13.697 2°32.739 274.9 12.7 273 25.1
2008-03-20 08:55:58 51°13.696 2°32.71 275.5 12.9 267 25
2008-03-20 08:56:03 51°13.697 2°32.682 273.9 12.8 273 25.4
2008-03-20 08:56:08 51°13.697 2°32.654 274.8 12.8 270 25.2
2008-03-20 08:56:13 51°13.698 2°32.626 274.3 12.7 273 25.2
2008-03-20 08:56:17 51°13.698 2°32.603 274.8 12.8 270 25.3
2008-03-20 08:56:23 51°13.698 2°32.569 275 12.9 271 25.4
2008-03-20 08:56:28 51°13.698 2°32.541 275 12.8 271 25.2
2008-03-20 08:56:33 51°13.698 2°32.513 275 12.8 271 25.1
2008-03-20 08:56:38 51°13.699 2°32.484 274.2 13 271 25
2008-03-20 08:56:42 51°13.699 2°32.461 274.6 12.8 272 24.9
2008-03-20 08:56:48 51°13.699 2°32.427 274.9 12.9 269 24.7
2008-03-20 08:56:53 51°13.7 2°32.399 273.2 12.9 273 24.9
2008-03-20 08:56:58 51°13.7 2°32.37 275.3 12.9 271 25
2008-03-20 08:57:03 51°13.701 2°32.342 275.2 12.9 271 25.1
2008-03-20 08:57:08 51°13.701 2°32.314 275 12.8 272 25
2008-03-20 08:57:13 51°13.701 2°32.285 274.9 12.9 270 25.1
2008-03-20 08:57:18 51°13.702 2°32.257 274.1 12.9 272 24.9
2008-03-20 08:57:23 51°13.703 2°32.228 274.8 12.9 271 25.1
2008-03-20 08:57:28 51°13.702 2°32.2 274.8 13 270 25.1
2008-03-20 08:57:33 51°13.704 2°32.172 274.2 12.8 273 25.4
2008-03-20 08:57:38 51°13.703 2°32.143 275.8 12.8 269 24.9
2008-03-20 08:57:43 51°13.703 2°32.115 273 12.8 271 24.8
2008-03-20 08:57:48 51°13.703 2°32.088 274.3 12.1 269 24.6
2008-03-20 08:57:53 51°13.702 2°32.063 273.6 11.1 268 24.4
2008-03-20 08:57:58 51°13.702 2°32.04 273.9 10.3 270 24.5
2008-03-20 08:58:03 51°13.702 2°32.02 274 9.3 269 24.3
2008-03-20 08:58:08 51°13.702 2°32.001 274.8 8.7 269 24.4
2008-03-20 08:58:13 51°13.702 2°31.983 275 7.8 270 24.3
2008-03-20 08:58:18 51°13.702 2°31.968 275.8 7.1 271 24.2
2008-03-20 08:58:23 51°13.702 2°31.953 277.5 6.5 272 24.2
2008-03-20 08:58:28 51°13.703 2°31.94 279.8 6 277 23.9
2008-03-20 08:58:33 51°13.704 2°31.928 282.8 5.5 277 23.9
2008-03-20 08:58:37 51°13.705 2°31.919 287.2 5 284 24
2008-03-20 08:58:43 51°13.708 2°31.908 291.8 4.6 287 23.6
2008-03-20 08:58:48 51°13.71 2°31.899 297.6 4.2 293 23.6
2008-03-20 08:58:53 51°13.713 2°31.892 303.3 3.6 300 23.7
2008-03-20 08:58:58 51°13.715 2°31.886 309.1 3.2 302 23.4
2008-03-20 08:59:02 51°13.717 2°31.882 314.9 2.9 305 23.3
2008-03-20 08:59:08 51°13.719 2°31.877 319.5 2.5 310 23.6
2008-03-20 08:59:13 51°13.722 2°31.873 322.2 2.1 317 23.3
2008-03-20 08:59:18 51°13.723 2°31.87 325.1 2 316 23.6
2008-03-20 08:59:23 51°13.726 2°31.868 329.5 1.7 322 23.5
2008-03-20 08:59:28 51°13.727 2°31.866 333.3 1.4 326 23.3
2008-03-20 08:59:33 51°13.728 2°31.865 336.2 1.1 331 23
2008-03-20 08:59:38 51°13.73 2°31.864 339.6 0.9 333 23.1
2008-03-20 08:59:43 51°13.73 2°31.863 343.5 0.6 335 23
2008-03-20 08:59:48 51°13.731 2°31.864 348.2 0.3 30 23.1
2008-03-20 08:59:53 51°13.731 2°31.864 351.5 0.3 27 23
2008-03-20 08:59:58 51°13.731 2°31.864 354.8 0.3 60 22.8
2008-03-20 09:00:03 51°13.731 2°31.864 358.9 0.2 82 22.7
2008-03-20 09:00:08 51°13.731 2°31.865 2.1 0.1 56 22.8
2008-03-20 09:00:13 51°13.731 2°31.866 3.8 0.3 77 22.9
2008-03-20 09:00:18 51°13.731 2°31.866 5 0.2 59 23
2008-03-20 09:00:23 51°13.731 2°31.867 5.9 0.3 104 23.1
2008-03-20 09:00:28 51°13.731 2°31.868 6.6 0.3 116 23.4
2008-03-20 09:00:33 51°13.731 2°31.868 7.2 0.4 102 23.3
2008-03-20 09:00:38 51°13.731 2°31.869 7.7 0.4 110 23.2
2008-03-20 09:00:43 51°13.731 2°31.87 7.1 0.5 123 23.3
2008-03-20 09:00:48 51°13.731 2°31.871 6.6 0.4 119 23.3
2008-03-20 09:00:53 51°13.73 2°31.872 6.6 0.5 130 23.3
2008-03-20 09:00:58 51°13.73 2°31.873 6.8 0.4 137 23.3
2008-03-20 09:01:02 51°13.73 2°31.874 6.4 0.5 125 23.4
2008-03-20 09:01:08 51°13.729 2°31.875 5.7 0.6 140 23.5
2008-03-20 09:01:13 51°13.728 2°31.876 4.4 0.7 141 23.7
2008-03-20 09:01:18 51°13.728 2°31.876 3.5 0.6 153 23.8
2008-03-20 09:01:23 51°13.727 2°31.877 2.8 0.6 153 23.8
2008-03-20 09:01:28 51°13.726 2°31.878 2 0.6 135 23.8
2008-03-20 09:01:33 51°13.726 2°31.879 1.9 0.6 147 23.5
2008-03-20 09:01:38 51°13.725 2°31.88 2 0.7 140 23.6
2008-03-20 09:01:43 51°13.724 2°31.88 2 0.6 153 23.6